createdAt,value
2016-05-07T00:00:19.637Z,1014.14
2016-05-07T00:01:19.640Z,1014.13
2016-05-07T00:02:19.642Z,1014.17
2016-05-07T00:03:19.629Z,1014.12
2016-05-07T00:04:19.632Z,1014.15
2016-05-07T00:05:19.619Z,1014.16
2016-05-07T00:06:19.622Z,1014.14
2016-05-07T00:07:19.625Z,1014.15
2016-05-07T00:08:19.612Z,1014.14
2016-05-07T00:09:19.614Z,1014.15
2016-05-07T00:10:19.617Z,1014.14
2016-05-07T00:11:19.603Z,1014.15
2016-05-07T00:12:19.607Z,1014.16
2016-05-07T00:13:19.609Z,1014.15
2016-05-07T00:14:19.596Z,1014.17
2016-05-07T00:15:19.600Z,1014.12
2016-05-07T00:16:19.602Z,1014.11
2016-05-07T00:17:19.588Z,1014.12
2016-05-07T00:18:19.591Z,1014.07
2016-05-07T00:19:19.579Z,1014.07
2016-05-07T00:20:19.582Z,1014.05
2016-05-07T00:21:19.585Z,1014.04
2016-05-07T00:22:19.571Z,1014.04
2016-05-07T00:23:19.574Z,1014.03
2016-05-07T00:25:19.563Z,1014.03
2016-05-07T00:26:19.566Z,1014.03
2016-05-07T00:27:19.663Z,1014
2016-05-07T00:28:19.556Z,1013.99
2016-05-07T00:29:19.559Z,1013.99
2016-05-07T00:30:19.545Z,1014
2016-05-07T00:31:19.549Z,1014
2016-05-07T00:32:19.551Z,1013.96
2016-05-07T00:33:19.538Z,1013.96
2016-05-07T00:34:19.540Z,1013.95
2016-05-07T00:35:19.543Z,1013.95
2016-05-07T00:36:19.531Z,1013.93
2016-05-07T00:37:19.533Z,1013.97
2016-05-07T00:38:19.537Z,1013.92
2016-05-07T00:39:19.523Z,1013.96
2016-05-07T00:40:19.526Z,1013.89
2016-05-07T00:41:19.513Z,1013.91
2016-05-07T00:42:19.516Z,1013.91
2016-05-07T00:43:19.518Z,1013.91
2016-05-07T00:44:19.505Z,1013.91
2016-05-07T00:45:19.508Z,1013.91
2016-05-07T00:46:19.511Z,1013.91
2016-05-07T00:47:19.513Z,1013.89
2016-05-07T00:48:19.500Z,1013.87
2016-05-07T00:49:19.488Z,1013.85
2016-05-07T00:50:19.490Z,1013.81
2016-05-07T00:51:19.493Z,1013.86
2016-05-07T00:52:19.480Z,1013.84
2016-05-07T00:53:19.482Z,1013.82
2016-05-07T00:54:19.469Z,1013.81
2016-05-07T00:55:19.472Z,1013.82
2016-05-07T00:56:19.475Z,1013.84
2016-05-07T00:57:20.010Z,1013.83
2016-05-07T00:58:19.464Z,1013.83
2016-05-07T00:59:19.452Z,1013.82
2016-05-07T01:00:19.454Z,1013.84
2016-05-07T01:01:19.457Z,1013.85
2016-05-07T01:02:20.600Z,1013.86
2016-05-07T01:03:19.447Z,1013.86
2016-05-07T01:04:19.434Z,1013.86
2016-05-07T01:05:19.437Z,1013.87
2016-05-07T01:06:19.440Z,1013.87
2016-05-07T01:07:19.442Z,1013.87
2016-05-07T01:08:19.429Z,1013.87
2016-05-07T01:09:19.416Z,1013.89
2016-05-07T01:10:19.419Z,1013.89
2016-05-07T01:11:19.422Z,1013.86
2016-05-07T01:12:19.409Z,1013.84
2016-05-07T01:13:19.411Z,1013.83
2016-05-07T01:14:19.414Z,1013.83
2016-05-07T01:15:19.401Z,1013.86
2016-05-07T01:16:19.403Z,1013.86
2016-05-07T01:17:19.391Z,1013.78
2016-05-07T01:18:19.394Z,1013.81
2016-05-07T01:19:19.380Z,1013.79
2016-05-07T01:20:19.383Z,1013.82
2016-05-07T01:21:19.385Z,1013.82
2016-05-07T01:22:19.374Z,1013.79
2016-05-07T01:23:19.376Z,1013.79
2016-05-07T01:24:19.363Z,1013.81
2016-05-07T01:25:19.365Z,1013.78
2016-05-07T01:26:19.353Z,1013.76
2016-05-07T01:27:19.354Z,1013.8
2016-05-07T01:28:19.358Z,1013.79
2016-05-07T01:29:19.346Z,1013.79
2016-05-07T01:30:19.348Z,1013.77
2016-05-07T01:31:19.334Z,1013.81
2016-05-07T01:32:19.338Z,1013.76
2016-05-07T01:33:19.324Z,1013.78
2016-05-07T01:34:19.327Z,1013.81
2016-05-07T01:35:19.330Z,1013.77
2016-05-07T01:36:19.411Z,1013.78
2016-05-07T01:37:19.320Z,1013.77
2016-05-07T01:38:19.462Z,1013.78
2016-05-07T01:39:19.309Z,1013.76
2016-05-07T01:40:19.297Z,1013.76
2016-05-07T01:41:19.293Z,1013.76
2016-05-07T01:42:19.299Z,1013.75
2016-05-07T01:43:20.145Z,1013.75
2016-05-07T01:44:19.285Z,1013.76
2016-05-07T01:45:19.272Z,1013.77
2016-05-07T01:46:19.274Z,1013.72
2016-05-07T01:47:19.418Z,1013.74
2016-05-07T01:48:19.265Z,1013.71
2016-05-07T01:49:19.407Z,1013.74
2016-05-07T01:50:19.253Z,1013.74
2016-05-07T01:51:19.257Z,1013.73
2016-05-07T01:52:19.259Z,1013.75
2016-05-07T01:53:19.246Z,1013.74
2016-05-07T01:54:19.250Z,1013.74
2016-05-07T01:55:19.236Z,1013.75
2016-05-07T01:56:19.239Z,1013.75
2016-05-07T01:57:19.242Z,1013.71
2016-05-07T01:58:19.228Z,1013.71
2016-05-07T01:59:19.216Z,1013.78
2016-05-07T02:00:19.219Z,1013.74
2016-05-07T02:01:19.205Z,1013.76
2016-05-07T02:02:19.208Z,1013.77
2016-05-07T02:03:19.227Z,1013.77
2016-05-07T02:04:19.197Z,1013.76
2016-05-07T02:05:19.200Z,1013.77
2016-05-07T02:06:19.188Z,1013.77
2016-05-07T02:07:19.191Z,1013.74
2016-05-07T02:08:19.177Z,1013.78
2016-05-07T02:09:19.180Z,1013.75
2016-05-07T02:10:19.182Z,1013.75
2016-05-07T02:11:19.170Z,1013.73
2016-05-07T02:12:19.157Z,1013.74
2016-05-07T02:13:19.160Z,1013.74
2016-05-07T02:14:19.162Z,1013.74
2016-05-07T02:15:19.149Z,1013.73
2016-05-07T02:16:19.151Z,1013.71
2016-05-07T02:17:19.140Z,1013.76
2016-05-07T02:18:19.142Z,1013.75
2016-05-07T02:19:19.129Z,1013.75
2016-05-07T02:20:19.287Z,1013.74
2016-05-07T02:21:19.134Z,1013.75
2016-05-07T02:22:19.120Z,1013.73
2016-05-07T02:23:19.546Z,1013.72
2016-05-07T02:24:19.114Z,1013.73
2016-05-07T02:25:19.117Z,1013.75
2016-05-07T02:26:19.104Z,1013.73
2016-05-07T02:27:19.106Z,1013.74
2016-05-07T02:28:19.093Z,1013.72
2016-05-07T02:29:19.096Z,1013.71
2016-05-07T02:30:19.084Z,1013.72
2016-05-07T02:31:19.086Z,1013.71
2016-05-07T02:32:19.072Z,1013.74
2016-05-07T02:33:19.075Z,1013.72
2016-05-07T02:34:19.064Z,1013.74
2016-05-07T02:35:19.066Z,1013.8
2016-05-07T02:36:19.053Z,1013.74
2016-05-07T02:37:19.055Z,1013.77
2016-05-07T02:38:19.041Z,1013.75
2016-05-07T02:39:19.045Z,1013.78
2016-05-07T02:40:19.033Z,1013.75
2016-05-07T02:41:19.035Z,1013.75
2016-05-07T02:42:19.038Z,1013.73
2016-05-07T02:43:19.024Z,1013.76
2016-05-07T02:44:19.027Z,1013.75
2016-05-07T02:45:19.014Z,1013.74
2016-05-07T02:46:19.017Z,1013.75
2016-05-07T02:47:19.004Z,1013.74
2016-05-07T02:48:19.007Z,1013.74
2016-05-07T02:49:19.009Z,1013.74
2016-05-07T02:50:18.996Z,1013.74
2016-05-07T02:51:18.984Z,1013.75
2016-05-07T02:52:18.987Z,1013.76
2016-05-07T02:53:18.973Z,1013.73
2016-05-07T02:54:18.976Z,1013.73
2016-05-07T02:55:18.963Z,1013.72
2016-05-07T02:56:18.965Z,1013.75
2016-05-07T02:57:20.296Z,1013.75
2016-05-07T02:58:18.956Z,1013.76
2016-05-07T02:59:18.942Z,1013.77
2016-05-07T03:00:18.945Z,1013.75
2016-05-07T03:01:18.948Z,1013.78
2016-05-07T03:02:18.934Z,1013.81
2016-05-07T03:03:18.937Z,1013.8
2016-05-07T03:04:19.878Z,1013.81
2016-05-07T03:05:20.084Z,1013.81
2016-05-07T03:06:18.914Z,1013.84
2016-05-07T03:07:18.917Z,1013.82
2016-05-07T03:08:18.904Z,1013.84
2016-05-07T03:09:18.907Z,1013.81
2016-05-07T03:10:18.894Z,1013.82
2016-05-07T03:11:18.897Z,1013.77
2016-05-07T03:12:18.883Z,1013.79
2016-05-07T03:13:18.886Z,1013.85
2016-05-07T03:14:18.873Z,1013.83
2016-05-07T03:15:18.877Z,1013.88
2016-05-07T03:16:18.863Z,1013.84
2016-05-07T03:17:18.866Z,1013.85
2016-05-07T03:18:18.852Z,1013.81
2016-05-07T03:19:18.855Z,1013.85
2016-05-07T03:20:18.842Z,1013.82
2016-05-07T03:21:18.846Z,1013.85
2016-05-07T03:22:18.832Z,1013.87
2016-05-07T03:23:18.835Z,1013.86
2016-05-07T03:24:18.822Z,1013.91
2016-05-07T03:25:18.826Z,1013.92
2016-05-07T03:26:18.812Z,1013.9
2016-05-07T03:27:18.815Z,1013.92
2016-05-07T03:28:18.801Z,1013.9
2016-05-07T03:29:19.679Z,1013.88
2016-05-07T03:30:18.994Z,1013.93
2016-05-07T03:31:18.795Z,1013.94
2016-05-07T03:32:18.797Z,1013.91
2016-05-07T03:33:18.784Z,1013.92
2016-05-07T03:34:18.770Z,1013.93
2016-05-07T03:35:18.774Z,1013.95
2016-05-07T03:36:20.167Z,1013.97
2016-05-07T03:37:18.764Z,1014
2016-05-07T03:38:18.750Z,1013.98
2016-05-07T03:39:18.753Z,1014
2016-05-07T03:40:19.271Z,1014
2016-05-07T03:41:18.744Z,1014.03
2016-05-07T03:42:18.730Z,1014
2016-05-07T03:43:18.732Z,1013.98
2016-05-07T03:44:18.719Z,1014.02
2016-05-07T03:45:18.722Z,1014
2016-05-07T03:46:18.725Z,1014
2016-05-07T03:47:18.713Z,1014.03
2016-05-07T03:48:18.715Z,1014.01
2016-05-07T03:49:18.702Z,1014.01
2016-05-07T03:50:18.705Z,1014.04
2016-05-07T03:51:18.691Z,1014
2016-05-07T03:52:18.694Z,1014.04
2016-05-07T03:53:18.681Z,1014.03
2016-05-07T03:54:18.684Z,1014.01
2016-05-07T03:55:18.671Z,1014.01
2016-05-07T03:56:18.673Z,1014.01
2016-05-07T03:57:18.662Z,1014
2016-05-07T03:58:18.664Z,1014.03
2016-05-07T03:59:18.651Z,1014.06
2016-05-07T04:00:18.653Z,1014.1
2016-05-07T04:01:18.640Z,1014.08
2016-05-07T04:02:18.643Z,1014.1
2016-05-07T04:03:18.645Z,1014.11
2016-05-07T04:04:18.633Z,1014.19
2016-05-07T04:05:18.620Z,1014.16
2016-05-07T04:06:18.623Z,1014.13
2016-05-07T04:07:18.625Z,1014.15
2016-05-07T04:08:18.612Z,1014.2
2016-05-07T04:09:18.615Z,1014.21
2016-05-07T04:10:18.602Z,1014.2
2016-05-07T04:11:18.605Z,1014.21
2016-05-07T04:13:19.204Z,1014.25
2016-05-07T04:14:18.597Z,1014.31
2016-05-07T04:15:18.585Z,1014.34
2016-05-07T04:16:18.587Z,1014.35
2016-05-07T04:17:18.793Z,1014.38
2016-05-07T04:18:18.577Z,1014.38
2016-05-07T04:19:18.580Z,1014.43
2016-05-07T04:20:18.582Z,1014.38
2016-05-07T04:22:18.571Z,1014.37
2016-05-07T04:23:18.574Z,1014.41
2016-05-07T04:24:18.577Z,1014.41
2016-05-07T04:25:18.580Z,1014.38
2016-05-07T04:26:18.582Z,1014.41
2016-05-07T04:27:18.570Z,1014.42
2016-05-07T04:28:18.573Z,1014.44
2016-05-07T04:29:18.575Z,1014.44
2016-05-07T04:30:18.578Z,1014.44
2016-05-07T04:31:18.581Z,1014.41
2016-05-07T04:32:18.583Z,1014.48
2016-05-07T04:33:18.586Z,1014.48
2016-05-07T04:34:18.573Z,1014.51
2016-05-07T04:35:18.575Z,1014.54
2016-05-07T04:36:18.579Z,1014.55
2016-05-07T04:37:18.581Z,1014.58
2016-05-07T04:38:18.583Z,1014.53
2016-05-07T04:39:18.603Z,1014.57
2016-05-07T04:40:18.589Z,1014.63
2016-05-07T04:41:18.591Z,1014.55
2016-05-07T04:42:18.657Z,1014.56
2016-05-07T04:43:18.598Z,1014.55
2016-05-07T04:44:18.600Z,1014.59
2016-05-07T04:45:18.618Z,1014.56
2016-05-07T04:46:20.183Z,1014.58
2016-05-07T04:48:18.611Z,1014.62
2016-05-07T04:49:18.629Z,1014.64
2016-05-07T04:50:18.632Z,1014.67
2016-05-07T04:51:18.635Z,1014.7
2016-05-07T04:52:18.637Z,1014.67
2016-05-07T04:53:18.718Z,1014.69
2016-05-07T04:54:18.657Z,1014.72
2016-05-07T04:55:19.317Z,1014.69
2016-05-07T04:56:18.663Z,1014.72
2016-05-07T04:57:19.182Z,1014.71
2016-05-07T04:58:18.871Z,1014.8
2016-05-07T04:59:18.687Z,1014.77
2016-05-07T05:00:19.190Z,1014.73
2016-05-07T05:01:18.709Z,1014.78
2016-05-07T05:02:18.711Z,1014.84
2016-05-07T05:03:18.714Z,1014.77
2016-05-07T05:04:18.731Z,1014.81
2016-05-07T05:05:18.735Z,1014.87
2016-05-07T05:06:18.753Z,1014.89
2016-05-07T05:07:18.755Z,1014.98
2016-05-07T05:08:18.758Z,1014.98
2016-05-07T05:09:18.776Z,1014.97
2016-05-07T05:10:18.779Z,1014.96
2016-05-07T05:11:18.798Z,1014.93
2016-05-07T05:12:18.800Z,1015
2016-05-07T05:13:18.803Z,1015.1
2016-05-07T05:14:18.821Z,1015.16
2016-05-07T05:15:18.839Z,1015.2
2016-05-07T05:16:18.842Z,1015.22
2016-05-07T05:17:18.845Z,1015.22
2016-05-07T05:18:18.863Z,1015.19
2016-05-07T05:19:18.866Z,1015.16
2016-05-07T05:20:18.885Z,1015.22
2016-05-07T05:21:18.887Z,1015.25
2016-05-07T05:22:18.906Z,1015.2
2016-05-07T05:23:18.924Z,1015.2
2016-05-07T05:24:18.926Z,1015.19
2016-05-07T05:25:18.929Z,1015.2
2016-05-07T05:26:18.947Z,1015.2
2016-05-07T05:27:18.949Z,1015.21
2016-05-07T05:28:18.968Z,1015.19
2016-05-07T05:29:18.971Z,1015.2
2016-05-07T05:30:18.990Z,1015.25
2016-05-07T05:31:19.007Z,1015.35
2016-05-07T05:32:19.010Z,1015.32
2016-05-07T05:33:19.029Z,1015.35
2016-05-07T05:34:19.437Z,1015.37
2016-05-07T05:35:19.050Z,1015.45
2016-05-07T05:36:19.068Z,1015.43
2016-05-07T05:37:19.070Z,1015.46
2016-05-07T05:38:19.089Z,1015.53
2016-05-07T05:39:19.092Z,1015.51
2016-05-07T05:40:19.203Z,1015.58
2016-05-07T05:41:19.129Z,1015.57
2016-05-07T05:42:19.334Z,1015.64
2016-05-07T05:43:19.149Z,1015.58
2016-05-07T05:44:19.168Z,1015.61
2016-05-07T05:45:19.170Z,1015.67
2016-05-07T05:46:19.189Z,1015.69
2016-05-07T05:47:19.207Z,1015.7
2016-05-07T05:48:19.210Z,1015.75
2016-05-07T05:49:19.228Z,1015.83
2016-05-07T05:50:19.246Z,1015.82
2016-05-07T05:51:19.249Z,1015.87
2016-05-07T05:52:19.267Z,1015.81
2016-05-07T05:53:19.286Z,1015.87
2016-05-07T05:54:19.304Z,1015.9
2016-05-07T05:55:19.307Z,1015.92
2016-05-07T05:56:19.325Z,1015.97
2016-05-07T05:57:19.327Z,1015.99
2016-05-07T05:58:19.346Z,1016.06
2016-05-07T05:59:19.365Z,1016.15
2016-05-07T06:00:19.383Z,1016.17
2016-05-07T06:01:19.385Z,1016.21
2016-05-07T06:02:19.404Z,1016.26
2016-05-07T06:03:19.421Z,1016.39
2016-05-07T06:05:19.443Z,1016.6
2016-05-07T06:06:19.462Z,1016.59
2016-05-07T06:07:19.729Z,1016.65
2016-05-07T06:08:19.482Z,1016.7
2016-05-07T06:09:19.501Z,1016.76
2016-05-07T06:10:19.520Z,1016.78
2016-05-07T06:11:19.537Z,1016.85
2016-05-07T06:12:19.555Z,1016.98
2016-05-07T06:13:19.558Z,1017.24
2016-05-07T06:14:19.576Z,1017.31
2016-05-07T06:15:19.595Z,1017.24
2016-05-07T06:16:19.614Z,1017.25
2016-05-07T06:17:19.616Z,1017.28
2016-05-07T06:18:19.634Z,1017.32
2016-05-07T06:19:20.325Z,1017.45
2016-05-07T06:20:19.953Z,1017.49
2016-05-07T06:21:19.674Z,1017.49
2016-05-07T06:22:19.786Z,1017.47
2016-05-07T06:23:19.710Z,1017.45
2016-05-07T06:24:19.728Z,1017.44
2016-05-07T06:25:19.747Z,1017.37
2016-05-07T06:26:19.765Z,1017.36
2016-05-07T06:27:19.783Z,1017.32
2016-05-07T06:28:19.786Z,1017.32
2016-05-07T06:29:19.804Z,1017.38
2016-05-07T06:30:19.823Z,1017.36
2016-05-07T06:31:19.840Z,1017.34
2016-05-07T06:32:19.859Z,1017.33
2016-05-07T06:33:19.863Z,1017.31
2016-05-07T06:34:19.880Z,1017.3
2016-05-07T06:35:19.898Z,1017.31
2016-05-07T06:36:19.918Z,1017.23
2016-05-07T06:37:19.935Z,1017.26
2016-05-07T06:38:19.954Z,1017.25
2016-05-07T06:39:19.956Z,1017.16
2016-05-07T06:40:19.975Z,1017
2016-05-07T06:41:19.993Z,1016.9
2016-05-07T06:42:20.011Z,1016.88
2016-05-07T06:43:20.029Z,1016.88
2016-05-07T06:44:20.047Z,1016.88
2016-05-07T06:45:20.066Z,1016.9
2016-05-07T06:46:20.084Z,1016.89
2016-05-07T06:47:20.103Z,1016.86
2016-05-07T06:48:20.106Z,1016.8
2016-05-07T06:50:20.142Z,1016.72
2016-05-07T06:51:20.458Z,1016.71
2016-05-07T06:52:20.178Z,1016.63
2016-05-07T06:53:20.197Z,1016.65
2016-05-07T06:54:20.216Z,1016.64
2016-05-07T06:55:20.233Z,1016.66
2016-05-07T06:56:20.252Z,1016.58
2016-05-07T06:57:20.270Z,1016.56
2016-05-07T06:58:21.383Z,1016.5
2016-05-07T06:59:20.307Z,1016.48
2016-05-07T07:00:20.309Z,1016.51
2016-05-07T07:01:20.327Z,1016.51
2016-05-07T07:02:20.862Z,1016.52
2016-05-07T07:03:20.365Z,1016.52
2016-05-07T07:04:20.383Z,1016.53
2016-05-07T07:05:20.401Z,1016.52
2016-05-07T07:06:20.420Z,1016.57
2016-05-07T07:07:20.437Z,1016.52
2016-05-07T07:08:20.457Z,1016.55
2016-05-07T07:09:20.474Z,1016.47
2016-05-07T07:10:20.508Z,1016.5
2016-05-07T07:11:20.512Z,1016.52
2016-05-07T07:12:20.529Z,1016.44
2016-05-07T07:13:20.548Z,1016.54
2016-05-07T07:14:20.566Z,1016.51
2016-05-07T07:15:20.584Z,1016.52
2016-05-07T07:16:20.602Z,1016.5
2016-05-07T07:17:20.621Z,1016.49
2016-05-07T07:18:20.640Z,1016.49
2016-05-07T07:19:20.658Z,1016.52
2016-05-07T07:20:20.675Z,1016.51
2016-05-07T07:21:20.694Z,1016.54
2016-05-07T07:22:20.713Z,1016.58
2016-05-07T07:23:21.747Z,1016.55
2016-05-07T07:24:20.750Z,1016.6
2016-05-07T07:25:22.127Z,1016.58
2016-05-07T07:26:20.786Z,1016.54
2016-05-07T07:27:20.804Z,1016.57
2016-05-07T07:28:20.822Z,1016.55
2016-05-07T07:29:20.840Z,1016.48
2016-05-07T07:30:20.875Z,1016.54
2016-05-07T07:31:20.894Z,1016.53
2016-05-07T07:32:20.911Z,1016.55
2016-05-07T07:33:20.929Z,1016.52
2016-05-07T07:34:20.948Z,1016.52
2016-05-07T07:35:20.966Z,1016.5
2016-05-07T07:36:20.985Z,1016.48
2016-05-07T07:37:21.004Z,1016.49
2016-05-07T07:38:21.224Z,1016.54
2016-05-07T07:39:21.040Z,1016.59
2016-05-07T07:40:21.073Z,1016.52
2016-05-07T07:41:21.092Z,1016.54
2016-05-07T07:42:21.298Z,1016.51
2016-05-07T07:43:21.129Z,1016.48
2016-05-07T07:44:21.147Z,1016.49
2016-05-07T07:45:21.165Z,1016.51
2016-05-07T07:46:21.183Z,1016.43
2016-05-07T07:47:21.217Z,1016.37
2016-05-07T07:48:21.236Z,1016.34
2016-05-07T07:49:21.254Z,1016.32
2016-05-07T07:50:21.272Z,1016.36
2016-05-07T07:51:21.291Z,1016.37
2016-05-07T07:52:21.308Z,1016.28
2016-05-07T07:53:21.328Z,1016.33
2016-05-07T07:54:21.361Z,1016.38
2016-05-07T07:55:21.380Z,1016.31
2016-05-07T07:56:21.398Z,1016.25
2016-05-07T07:57:21.416Z,1016.31
2016-05-07T07:58:21.435Z,1016.29
2016-05-07T07:59:21.468Z,1016.29
2016-05-07T08:00:21.486Z,1016.18
2016-05-07T08:01:21.505Z,1016.22
2016-05-07T08:02:21.524Z,1016.17
2016-05-07T08:03:21.541Z,1016.31
2016-05-07T08:04:21.560Z,1016.26
2016-05-07T08:05:21.593Z,1016.22
2016-05-07T08:06:21.613Z,1016.24
2016-05-07T08:07:21.630Z,1016.19
2016-05-07T08:08:21.649Z,1016.12
2016-05-07T08:09:21.682Z,1016.1
2016-05-07T08:10:21.701Z,1016.11
2016-05-07T08:11:22.376Z,1016.04
2016-05-07T08:12:21.737Z,1015.89
2016-05-07T08:13:21.771Z,1015.89
2016-05-07T08:14:21.790Z,1015.87
2016-05-07T08:15:21.808Z,1015.85
2016-05-07T08:16:21.827Z,1015.87
2016-05-07T08:17:21.845Z,1015.95
2016-05-07T08:18:22.566Z,1015.85
2016-05-07T08:19:21.897Z,1015.83
2016-05-07T08:20:21.915Z,1015.8
2016-05-07T08:21:21.934Z,1015.76
2016-05-07T08:22:21.953Z,1015.69
2016-05-07T08:23:22.095Z,1015.74
2016-05-07T08:24:21.988Z,1015.8
2016-05-07T08:25:22.022Z,1015.72
2016-05-07T08:26:22.042Z,1015.74
2016-05-07T08:27:22.059Z,1015.67
2016-05-07T08:28:22.077Z,1015.68
2016-05-07T08:29:22.101Z,1015.65
2016-05-07T08:30:22.161Z,1015.64
2016-05-07T08:31:22.224Z,1015.69
2016-05-07T08:32:22.331Z,1015.63
2016-05-07T08:33:22.346Z,1015.66
2016-05-07T08:34:22.404Z,1015.64
2016-05-07T08:35:22.437Z,1015.59
2016-05-07T08:36:22.472Z,1015.4
2016-05-07T08:37:22.506Z,1015.22
2016-05-07T08:38:22.538Z,1015.12
2016-05-07T08:39:22.571Z,1015.12
2016-05-07T08:40:22.596Z,1015.09
2016-05-07T08:41:22.619Z,1015.12
2016-05-07T08:42:22.644Z,1015.06
2016-05-07T08:43:23.136Z,1014.99
2016-05-07T08:44:22.691Z,1014.99
2016-05-07T08:45:22.696Z,1015.05
2016-05-07T08:46:22.717Z,1014.95
2016-05-07T08:47:22.736Z,1015.05
2016-05-07T08:48:22.740Z,1015.06
2016-05-07T08:49:22.762Z,1015.02
2016-05-07T08:50:22.781Z,1015.04
2016-05-07T08:51:22.784Z,1015.04
2016-05-07T08:52:23.663Z,1015.05
2016-05-07T08:53:22.822Z,1015.02
2016-05-07T08:54:23.747Z,1014.97
2016-05-07T08:55:22.843Z,1014.99
2016-05-07T08:56:22.847Z,1015
2016-05-07T08:57:22.975Z,1014.95
2016-05-07T08:58:22.869Z,1014.95
2016-05-07T08:59:22.888Z,1014.94
2016-05-07T09:00:22.890Z,1014.9
2016-05-07T09:01:22.908Z,1014.93
2016-05-07T09:02:22.911Z,1014.97
2016-05-07T09:03:22.913Z,1014.99
2016-05-07T09:04:22.933Z,1014.95
2016-05-07T09:05:22.935Z,1014.92
2016-05-07T09:06:22.938Z,1014.94
2016-05-07T09:07:22.956Z,1014.89
2016-05-07T09:08:22.959Z,1014.95
2016-05-07T09:09:22.962Z,1014.94
2016-05-07T09:10:22.980Z,1014.95
2016-05-07T09:11:22.982Z,1014.94
2016-05-07T09:12:23.079Z,1014.98
2016-05-07T09:13:23.003Z,1015.05
2016-05-07T09:14:23.007Z,1014.98
2016-05-07T09:15:23.009Z,1014.99
2016-05-07T09:16:23.012Z,1014.88
2016-05-07T09:17:23.045Z,1014.85
2016-05-07T09:18:23.032Z,1014.9
2016-05-07T09:19:23.035Z,1014.87
2016-05-07T09:20:23.038Z,1014.85
2016-05-07T09:21:23.040Z,1014.92
2016-05-07T09:22:23.058Z,1014.9
2016-05-07T09:23:23.062Z,1014.85
2016-05-07T09:24:23.064Z,1014.86
2016-05-07T09:25:23.067Z,1014.89
2016-05-07T09:26:24.179Z,1014.88
2016-05-07T09:27:23.088Z,1014.86
2016-05-07T09:28:23.091Z,1014.83
2016-05-07T09:29:23.094Z,1014.84
2016-05-07T09:30:23.096Z,1014.82
2016-05-07T09:31:23.114Z,1014.74
2016-05-07T09:32:23.116Z,1014.73
2016-05-07T09:33:23.119Z,1014.68
2016-05-07T09:34:23.122Z,1014.74
2016-05-07T09:35:23.125Z,1014.79
2016-05-07T09:36:23.128Z,1014.75
2016-05-07T09:37:23.162Z,1014.72
2016-05-07T09:38:23.149Z,1014.54
2016-05-07T09:39:23.151Z,1014.84
2016-05-07T09:40:23.154Z,1014.74
2016-05-07T09:41:23.407Z,1014.9
2016-05-07T09:42:23.160Z,1014.7
2016-05-07T09:43:23.178Z,1014.73
2016-05-07T09:44:23.181Z,1014.79
2016-05-07T09:45:23.184Z,1014.75
2016-05-07T09:46:23.187Z,1014.72
2016-05-07T09:47:23.189Z,1014.6
2016-05-07T09:48:23.192Z,1014.69
2016-05-07T09:49:23.194Z,1014.66
2016-05-07T09:50:23.212Z,1014.67
2016-05-07T09:51:23.215Z,1014.61
2016-05-07T09:52:23.218Z,1014.61
2016-05-07T09:53:23.220Z,1014.64
2016-05-07T09:54:23.223Z,1014.59
2016-05-07T09:55:23.225Z,1014.58
2016-05-07T09:56:23.245Z,1014.53
2016-05-07T09:57:23.247Z,1014.43
2016-05-07T09:58:23.250Z,1014.5
2016-05-07T09:59:23.252Z,1014.53
2016-05-07T10:00:23.270Z,1014.54
2016-05-07T10:01:23.258Z,1014.51
2016-05-07T10:02:23.276Z,1014.49
2016-05-07T10:03:24.247Z,1014.47
2016-05-07T10:04:23.281Z,1014.57
2016-05-07T10:05:23.909Z,1014.54
2016-05-07T10:06:23.286Z,1014.51
2016-05-07T10:07:23.289Z,1014.48
2016-05-07T10:08:23.292Z,1014.42
2016-05-07T10:09:23.310Z,1014.37
2016-05-07T10:10:23.313Z,1014.38
2016-05-07T10:11:23.316Z,1014.35
2016-05-07T10:12:23.318Z,1014.22
2016-05-07T10:13:23.321Z,1014.28
2016-05-07T10:14:23.777Z,1014.4
2016-05-07T10:15:23.342Z,1014.33
2016-05-07T10:16:23.345Z,1014.38
2016-05-07T10:17:23.348Z,1014.33
2016-05-07T10:18:23.351Z,1014.28
2016-05-07T10:19:23.353Z,1014.26
2016-05-07T10:20:23.371Z,1014.35
2016-05-07T10:21:23.374Z,1014.41
2016-05-07T10:22:23.376Z,1014.38
2016-05-07T10:23:23.378Z,1014.39
2016-05-07T10:24:23.381Z,1014.36
2016-05-07T10:25:23.385Z,1014.36
2016-05-07T10:26:23.387Z,1014.41
2016-05-07T10:27:23.405Z,1014.36
2016-05-07T10:28:23.404Z,1014.28
2016-05-07T10:29:23.406Z,1014.22
2016-05-07T10:30:23.408Z,1014.43
2016-05-07T10:31:23.428Z,1014.35
2016-05-07T10:32:23.430Z,1014.36
2016-05-07T10:33:23.433Z,1014.39
2016-05-07T10:34:23.435Z,1014.36
2016-05-07T10:35:23.439Z,1014.28
2016-05-07T10:36:23.456Z,1014.32
2016-05-07T10:37:23.443Z,1014.29
2016-05-07T10:38:23.462Z,1014.25
2016-05-07T10:39:23.464Z,1014.12
2016-05-07T10:40:23.466Z,1014.26
2016-05-07T10:41:23.469Z,1014.25
2016-05-07T10:42:23.566Z,1014.29
2016-05-07T10:43:23.475Z,1014.21
2016-05-07T10:44:23.493Z,1014.21
2016-05-07T10:45:24.308Z,1014.22
2016-05-07T10:46:23.499Z,1014.29
2016-05-07T10:48:23.504Z,1014.2
2016-05-07T10:49:23.507Z,1014.2
2016-05-07T10:50:23.526Z,1014.19
2016-05-07T10:51:23.528Z,1014.21
2016-05-07T10:52:23.531Z,1014.16
2016-05-07T10:53:23.534Z,1014.19
2016-05-07T10:54:23.536Z,1014.06
2016-05-07T10:55:23.554Z,1014.12
2016-05-07T10:56:23.556Z,1014.14
2016-05-07T10:57:23.810Z,1014.25
2016-05-07T10:58:23.562Z,1014.29
2016-05-07T10:59:23.564Z,1014.11
2016-05-07T11:00:23.568Z,1014.2
2016-05-07T11:01:23.570Z,1014.27
2016-05-07T11:02:23.588Z,1014.14
2016-05-07T11:03:23.591Z,1014.11
2016-05-07T11:04:23.610Z,1014.1
2016-05-07T11:05:23.597Z,1014.19
2016-05-07T11:06:23.599Z,1014.17
2016-05-07T11:07:23.603Z,1014.14
2016-05-07T11:08:23.620Z,1014.16
2016-05-07T11:09:23.622Z,1014.11
2016-05-07T11:10:23.625Z,1014.14
2016-05-07T11:11:23.628Z,1014.18
2016-05-07T11:12:23.756Z,1014.2
2016-05-07T11:13:23.649Z,1014.25
2016-05-07T11:14:23.652Z,1014.22
2016-05-07T11:15:23.655Z,1014.25
2016-05-07T11:16:23.657Z,1014.24
2016-05-07T11:17:23.660Z,1014.11
2016-05-07T11:18:23.663Z,1014.18
2016-05-07T11:19:23.682Z,1014.19
2016-05-07T11:20:23.684Z,1014.08
2016-05-07T11:21:23.687Z,1013.98
2016-05-07T11:22:23.689Z,1014.1
2016-05-07T11:23:23.692Z,1014.38
2016-05-07T11:24:23.710Z,1014.12
2016-05-07T11:25:23.713Z,1013.96
2016-05-07T11:26:23.715Z,1013.97
2016-05-07T11:27:23.734Z,1014.23
2016-05-07T11:28:23.721Z,1014.12
2016-05-07T11:29:23.723Z,1013.97
2016-05-07T11:30:23.742Z,1014.02
2016-05-07T11:31:23.761Z,1014.02
2016-05-07T11:32:24.903Z,1013.95
2016-05-07T11:33:23.751Z,1013.89
2016-05-07T11:34:23.753Z,1013.86
2016-05-07T11:35:23.772Z,1013.83
2016-05-07T11:36:23.774Z,1013.89
2016-05-07T11:37:23.776Z,1014.01
2016-05-07T11:38:23.780Z,1014
2016-05-07T11:39:23.797Z,1013.89
2016-05-07T11:40:23.800Z,1013.94
2016-05-07T11:41:23.802Z,1013.83
2016-05-07T11:42:23.806Z,1013.93
2016-05-07T11:43:23.808Z,1013.92
2016-05-07T11:44:23.810Z,1013.98
2016-05-07T11:45:23.814Z,1014.11
2016-05-07T11:46:23.832Z,1014.04
2016-05-07T11:47:23.835Z,1014.06
2016-05-07T11:48:23.837Z,1013.99
2016-05-07T11:49:23.840Z,1014.03
2016-05-07T11:50:23.858Z,1014.1
2016-05-07T11:51:23.861Z,1013.98
2016-05-07T11:52:23.863Z,1013.89
2016-05-07T11:53:23.866Z,1014.01
2016-05-07T11:54:23.869Z,1013.89
2016-05-07T11:55:23.871Z,1013.88
2016-05-07T11:56:23.890Z,1013.86
2016-05-07T11:57:23.892Z,1013.85
2016-05-07T11:58:23.896Z,1013.77
2016-05-07T11:59:23.898Z,1013.77
2016-05-07T12:00:23.901Z,1013.81
2016-05-07T12:01:23.919Z,1013.86
2016-05-07T12:02:23.922Z,1013.92
2016-05-07T12:03:23.940Z,1013.94
2016-05-07T12:04:24.677Z,1013.87
2016-05-07T12:05:23.945Z,1013.76
2016-05-07T12:06:23.995Z,1013.74
2016-05-07T12:07:23.951Z,1013.74
2016-05-07T12:08:23.953Z,1013.78
2016-05-07T12:09:23.956Z,1013.83
2016-05-07T12:10:24.178Z,1013.8
2016-05-07T12:11:23.977Z,1013.73
2016-05-07T12:12:23.980Z,1013.72
2016-05-07T12:13:24.483Z,1013.66
2016-05-07T12:14:24.001Z,1013.71
2016-05-07T12:15:24.004Z,1013.71